createdAt,value
2019-02-22T00:01:35.489Z,33.47
2019-02-22T00:04:03.637Z,32.77
2019-02-22T00:06:31.563Z,34.87
2019-02-22T00:08:59.570Z,31.90
2019-02-22T00:11:27.571Z,31.97
2019-02-22T00:13:55.230Z,32.70
2019-02-22T00:16:23.654Z,31.53
2019-02-22T00:18:51.316Z,35.60
2019-02-22T00:21:19.590Z,33.87
2019-02-22T00:23:47.635Z,34.20
2019-02-22T00:26:15.997Z,32.67
2019-02-22T00:28:43.925Z,32.57
2019-02-22T00:31:11.938Z,32.13
2019-02-22T00:33:39.872Z,30.47
2019-02-22T00:36:08.318Z,32.20
2019-02-22T00:38:35.974Z,33.30
2019-02-22T00:41:04.116Z,30.87
2019-02-22T00:43:32.071Z,31.87
2019-02-22T00:46:00.065Z,31.90
2019-02-22T00:48:27.817Z,30.83
2019-02-22T00:50:55.772Z,32.87
2019-02-22T00:53:23.754Z,32.37
2019-02-22T00:55:52.263Z,31.10
2019-02-22T00:58:20.612Z,33.30
2019-02-22T01:00:48.557Z,31.30
2019-02-22T01:03:16.841Z,33.07
2019-02-22T01:05:44.521Z,32.13
2019-02-22T01:08:12.202Z,31.53
2019-02-22T01:10:40.396Z,33.03
2019-02-22T01:13:08.371Z,31.60
2019-02-22T01:15:36.041Z,33.10
2019-02-22T01:18:04.463Z,33.47
2019-02-22T01:20:32.571Z,33.63
2019-02-22T01:23:00.917Z,35.07
2019-02-22T01:25:29.121Z,33.00
2019-02-22T01:27:56.786Z,33.07
2019-02-22T01:30:24.821Z,36.00
2019-02-22T01:32:52.832Z,33.83
2019-02-22T01:35:20.967Z,33.50
2019-02-22T01:37:49.169Z,34.87
2019-02-22T01:40:16.830Z,34.57
2019-02-22T01:42:44.557Z,35.03
2019-02-22T01:45:12.746Z,37.53
2019-02-22T01:47:40.868Z,35.63
2019-02-22T01:50:08.854Z,33.63
2019-02-22T01:52:37.497Z,36.07
2019-02-22T01:55:06.081Z,36.57
2019-02-22T01:57:34.213Z,37.17
2019-02-22T02:00:02.217Z,35.60
2019-02-22T02:02:30.217Z,34.03
2019-02-22T02:04:58.208Z,36.03
2019-02-22T02:07:26.208Z,36.10
2019-02-22T02:09:53.930Z,36.70
2019-02-22T02:12:22.382Z,35.23
2019-02-22T02:14:50.618Z,37.40
2019-02-22T02:17:18.629Z,35.23
2019-02-22T02:19:46.645Z,36.10
2019-02-22T02:22:14.738Z,35.10
2019-02-22T02:24:42.459Z,34.70
2019-02-22T02:27:10.402Z,36.80
2019-02-22T02:29:38.102Z,35.63
2019-02-22T02:32:05.774Z,35.43
2019-02-22T02:34:33.784Z,37.67
2019-02-22T02:37:01.862Z,36.30
2019-02-22T02:39:29.876Z,34.30
2019-02-22T02:41:57.946Z,34.43
2019-02-22T02:44:26.267Z,34.60
2019-02-22T02:46:54.204Z,34.90
2019-02-22T02:49:22.433Z,34.37
2019-02-22T02:51:50.814Z,35.27
2019-02-22T02:54:18.723Z,34.90
2019-02-22T02:56:46.698Z,33.00
2019-02-22T02:59:14.673Z,33.87
2019-02-22T03:01:42.401Z,32.80
2019-02-22T03:04:11.066Z,32.17
2019-02-22T03:06:58.463Z,31.50
2019-02-22T03:09:27.069Z,33.13
2019-02-22T03:11:54.737Z,34.77
2019-02-22T03:14:23.064Z,33.70
2019-02-22T03:16:51.055Z,34.43
2019-02-22T03:19:19.131Z,31.70
2019-02-22T03:21:47.630Z,33.07
2019-02-22T03:24:15.297Z,33.37
2019-02-22T03:26:43.468Z,31.73
2019-02-22T03:29:11.461Z,31.23
2019-02-22T03:31:39.435Z,30.77
2019-02-22T03:34:07.215Z,29.60
2019-02-22T03:36:35.200Z,28.50
2019-02-22T03:39:04.345Z,28.47
2019-02-22T03:41:33.624Z,28.50
2019-02-22T03:44:01.892Z,29.00
2019-02-22T03:46:30.299Z,28.03
2019-02-22T03:48:58.216Z,28.20
2019-02-22T03:51:26.136Z,28.40
2019-02-22T03:53:59.566Z,28.23
2019-02-22T03:56:27.305Z,26.00
2019-02-22T03:58:54.952Z,27.10
2019-02-22T04:01:23.662Z,26.03
2019-02-22T04:03:51.822Z,27.13
2019-02-22T04:06:19.726Z,25.87
2019-02-22T04:08:47.386Z,27.80
2019-02-22T04:11:15.716Z,28.07
2019-02-22T04:13:43.641Z,27.77
2019-02-22T04:16:11.608Z,25.80
2019-02-22T04:18:39.838Z,26.37
2019-02-22T04:21:07.508Z,25.00
2019-02-22T04:23:35.197Z,24.57
2019-02-22T04:26:02.859Z,25.00
2019-02-22T04:28:30.813Z,26.40
2019-02-22T04:30:58.481Z,26.60
2019-02-22T04:33:26.482Z,24.47
2019-02-22T04:35:54.495Z,25.47
2019-02-22T04:38:22.511Z,25.13
2019-02-22T04:40:50.684Z,25.90
2019-02-22T04:43:18.354Z,26.73
2019-02-22T04:45:46.575Z,24.40
2019-02-22T04:48:15.166Z,24.40
2019-02-22T04:50:43.123Z,24.40
2019-02-22T04:53:11.302Z,23.67
2019-02-22T04:55:39.321Z,24.67
2019-02-22T04:58:07.655Z,22.40
2019-02-22T05:00:35.930Z,24.30
2019-02-22T05:03:03.602Z,22.83
2019-02-22T05:05:32.288Z,22.10
2019-02-22T05:08:01.797Z,22.53
2019-02-22T05:10:30.061Z,22.70
2019-02-22T05:12:57.737Z,22.57
2019-02-22T05:15:26.091Z,22.07
2019-02-22T05:17:54.549Z,21.90
2019-02-22T05:20:23.028Z,22.67
2019-02-22T05:23:03.007Z,21.47
2019-02-22T05:25:20.413Z,21.40
2019-02-22T05:27:48.352Z,21.83
2019-02-22T05:30:16.015Z,21.13
2019-02-22T05:32:43.984Z,20.80
2019-02-22T05:35:11.708Z,23.40
2019-02-22T05:37:39.754Z,21.90
2019-02-22T05:40:16.717Z,22.20
2019-02-22T05:42:45.141Z,22.30
2019-02-22T05:45:13.466Z,22.53
2019-02-22T05:47:41.436Z,22.80
2019-02-22T05:50:09.408Z,23.33
2019-02-22T05:52:37.332Z,22.87
2019-02-22T05:55:05.070Z,22.27
2019-02-22T05:57:33.042Z,24.10
2019-02-22T06:00:01.090Z,22.47
2019-02-22T06:02:29.651Z,21.70
2019-02-22T06:04:57.330Z,23.30
2019-02-22T06:07:25.274Z,23.87
2019-02-22T06:09:53.607Z,25.03
2019-02-22T06:12:21.528Z,23.30
2019-02-22T06:14:49.534Z,24.27
2019-02-22T06:17:17.565Z,23.43
2019-02-22T06:19:45.897Z,23.57
2019-02-22T06:22:14.149Z,23.57
2019-02-22T06:24:41.914Z,22.20
2019-02-22T06:27:09.949Z,23.83
2019-02-22T06:29:37.869Z,22.57
2019-02-22T06:32:05.925Z,22.80
2019-02-22T06:34:34.284Z,24.30
2019-02-22T06:37:02.614Z,24.83
2019-02-22T06:39:30.664Z,24.00
2019-02-22T06:41:58.337Z,25.20
2019-02-22T06:44:26.002Z,23.57
2019-02-22T06:46:53.665Z,23.90
2019-02-22T06:49:21.570Z,25.10
2019-02-22T06:51:49.902Z,24.73
2019-02-22T06:54:17.795Z,24.10
2019-02-22T06:56:45.816Z,24.50
2019-02-22T06:59:13.764Z,23.97
2019-02-22T07:01:41.818Z,25.43
2019-02-22T07:04:10.122Z,25.90
2019-02-22T07:06:38.070Z,24.80
2019-02-22T07:09:06.154Z,24.63
2019-02-22T07:11:42.661Z,25.03
2019-02-22T07:14:10.601Z,27.10
2019-02-22T07:16:38.565Z,23.50
2019-02-22T07:19:06.487Z,24.80
2019-02-22T07:21:44.030Z,24.47
2019-02-22T07:24:04.151Z,26.10
2019-02-22T07:26:32.160Z,26.43
2019-02-22T07:28:59.833Z,24.83
2019-02-22T07:31:27.813Z,27.27
2019-02-22T07:33:55.777Z,25.10
2019-02-22T07:36:23.989Z,25.97
2019-02-22T07:38:52.486Z,25.73
2019-02-22T07:41:20.521Z,26.20
2019-02-22T07:43:48.792Z,26.57
2019-02-22T07:46:17.416Z,24.40
2019-02-22T07:48:45.434Z,26.30
2019-02-22T07:51:13.649Z,25.77
2019-02-22T07:53:41.326Z,26.67
2019-02-22T07:56:09.350Z,25.03
2019-02-22T07:58:37.625Z,26.37
2019-02-22T08:01:05.922Z,25.37
2019-02-22T08:03:37.253Z,26.07
2019-02-22T08:06:04.289Z,25.80
2019-02-22T08:08:32.288Z,25.80
2019-02-22T08:11:00.281Z,24.10
2019-02-22T08:13:28.249Z,25.97
2019-02-22T08:15:56.285Z,25.30
2019-02-22T08:18:23.953Z,27.00
2019-02-22T08:20:52.374Z,25.77
2019-02-22T08:23:20.030Z,25.10
2019-02-22T08:25:48.098Z,26.70
2019-02-22T08:28:15.817Z,28.43
2019-02-22T08:30:44.106Z,25.87
2019-02-22T08:33:12.376Z,26.20
2019-02-22T08:35:40.373Z,26.77
2019-02-22T08:38:08.962Z,26.20
2019-02-22T08:40:36.885Z,24.57
2019-02-22T08:43:04.540Z,26.10
2019-02-22T08:45:32.821Z,25.23
2019-02-22T08:48:00.474Z,23.63
2019-02-22T08:50:28.154Z,26.03
2019-02-22T08:52:56.369Z,25.23
2019-02-22T08:55:24.261Z,25.87
2019-02-22T08:57:52.630Z,25.60
2019-02-22T09:00:20.353Z,25.40
2019-02-22T09:02:48.321Z,25.97
2019-02-22T09:05:16.362Z,24.13
2019-02-22T09:07:44.901Z,26.03
2019-02-22T09:10:12.970Z,25.20
2019-02-22T09:12:41.037Z,26.20
2019-02-22T09:15:08.711Z,27.00
2019-02-22T09:17:37.082Z,25.17
2019-02-22T09:20:04.914Z,25.87
2019-02-22T09:22:33.217Z,25.73
2019-02-22T09:25:01.233Z,24.03
2019-02-22T09:27:29.262Z,24.50
2019-02-22T09:29:59.180Z,23.37
2019-02-22T09:32:27.254Z,24.33
2019-02-22T09:34:54.921Z,24.13
2019-02-22T09:37:23.185Z,23.83
2019-02-22T09:39:51.157Z,23.37
2019-02-22T09:42:19.129Z,23.97
2019-02-22T09:44:47.401Z,24.00
2019-02-22T09:47:15.058Z,23.70
2019-02-22T09:49:42.733Z,20.80
2019-02-22T09:52:11.010Z,24.87
2019-02-22T09:54:39.106Z,23.30
2019-02-22T09:57:07.562Z,22.60
2019-02-22T09:59:35.365Z,24.30
2019-02-22T10:02:03.294Z,21.90
2019-02-22T10:04:31.329Z,20.90
2019-02-22T10:06:59.536Z,22.03
2019-02-22T10:09:27.511Z,22.17
2019-02-22T10:11:55.562Z,17.63
2019-02-22T10:14:23.545Z,19.17
2019-02-22T10:16:51.609Z,18.07
2019-02-22T10:19:19.293Z,18.30
2019-02-22T10:21:47.558Z,17.90
2019-02-22T10:24:15.585Z,15.40
2019-02-22T10:26:43.653Z,15.00
2019-02-22T10:29:11.982Z,14.63
2019-02-22T10:31:39.636Z,14.27
2019-02-22T10:34:07.985Z,15.30
2019-02-22T10:36:44.714Z,17.07
2019-02-22T10:39:06.181Z,17.00
2019-02-22T10:41:34.699Z,18.00
2019-02-22T10:44:03.055Z,16.47
2019-02-22T10:46:30.941Z,17.57
2019-02-22T10:48:59.227Z,17.07
2019-02-22T10:51:27.242Z,18.70
2019-02-22T10:53:55.563Z,19.17
2019-02-22T10:56:23.250Z,17.17
2019-02-22T10:58:50.906Z,17.37
2019-02-22T11:01:18.922Z,15.70
2019-02-22T11:03:47.033Z,20.20
2019-02-22T11:06:15.617Z,33.43
2019-02-22T11:08:43.678Z,61.23
2019-02-22T11:11:12.163Z,18.67
2019-02-22T11:13:39.838Z,23.90
2019-02-22T11:16:08.201Z,16.57
2019-02-22T11:18:35.884Z,14.13
2019-02-22T11:21:04.146Z,14.60
2019-02-22T11:23:31.822Z,14.83
2019-02-22T11:26:00.041Z,16.37
2019-02-22T11:28:27.782Z,17.10
2019-02-22T11:30:55.778Z,16.20
2019-02-22T11:33:23.453Z,13.63
2019-02-22T11:35:51.654Z,13.83
2019-02-22T11:38:19.900Z,9.13
2019-02-22T11:40:48.235Z,8.47
2019-02-22T11:43:16.282Z,8.80
2019-02-22T11:45:44.175Z,10.20
2019-02-22T11:48:12.519Z,8.50
2019-02-22T11:50:40.183Z,7.00
2019-02-22T11:53:07.840Z,5.40
2019-02-22T11:55:36.182Z,4.00
2019-02-22T11:58:04.190Z,4.17
2019-02-22T12:00:32.542Z,4.30
2019-02-22T12:03:12.221Z,4.57
2019-02-22T12:05:29.893Z,3.50
2019-02-22T12:07:57.601Z,3.90
2019-02-22T12:10:25.272Z,3.33
2019-02-22T12:12:53.243Z,3.30
2019-02-22T12:15:20.926Z,3.30
2019-02-22T12:17:49.484Z,3.77
2019-02-22T12:20:17.654Z,3.00
2019-02-22T12:22:45.305Z,4.03
2019-02-22T12:25:13.615Z,3.40
2019-02-22T12:27:41.268Z,4.00
2019-02-22T12:30:10.261Z,3.60
2019-02-22T12:32:39.594Z,4.00
2019-02-22T12:35:07.765Z,3.90
2019-02-22T12:37:35.418Z,3.90
2019-02-22T12:40:03.086Z,6.47
2019-02-22T12:42:31.078Z,4.23
2019-02-22T12:45:02.891Z,3.80
2019-02-22T12:47:29.786Z,3.50
2019-02-22T12:49:57.762Z,3.53
2019-02-22T12:52:25.662Z,3.27
2019-02-22T12:54:53.597Z,3.10
2019-02-22T12:57:22.209Z,3.10
2019-02-22T12:59:50.189Z,2.87
2019-02-22T13:02:18.458Z,2.70
2019-02-22T13:04:46.736Z,2.33
2019-02-22T13:07:14.748Z,2.37
2019-02-22T13:09:42.437Z,2.90
2019-02-22T13:12:14.008Z,2.80
2019-02-22T13:14:40.761Z,3.10
2019-02-22T13:17:08.704Z,3.10
2019-02-22T13:19:36.654Z,2.90
2019-02-22T13:22:04.564Z,2.63
2019-02-22T13:24:32.521Z,3.20
2019-02-22T13:27:00.762Z,3.20
2019-02-22T13:29:28.409Z,2.70
2019-02-22T13:31:56.759Z,3.30
2019-02-22T13:34:24.766Z,3.00
2019-02-22T13:36:52.745Z,2.70
2019-02-22T13:39:20.676Z,2.87
2019-02-22T13:41:48.699Z,2.90
2019-02-22T13:44:17.018Z,3.10
2019-02-22T13:46:45.452Z,2.77
2019-02-22T13:49:13.677Z,3.33
2019-02-22T13:51:41.416Z,2.70
2019-02-22T13:54:09.330Z,3.07
2019-02-22T13:56:37.681Z,2.70
2019-02-22T13:59:05.916Z,2.80
2019-02-22T14:01:33.917Z,2.80
2019-02-22T14:04:01.567Z,2.63
2019-02-22T14:06:29.966Z,2.30
2019-02-22T14:08:58.295Z,2.60
2019-02-22T14:11:26.654Z,2.87
2019-02-22T14:13:54.652Z,2.00
2019-02-22T14:16:22.300Z,2.57
2019-02-22T14:18:50.057Z,2.43
2019-02-22T14:21:18.038Z,4.20
2019-02-22T14:23:46.358Z,2.40
2019-02-22T14:26:14.445Z,2.53
2019-02-22T14:28:42.697Z,2.60
2019-02-22T14:31:10.630Z,3.30
2019-02-22T14:33:38.612Z,2.50
2019-02-22T14:36:06.549Z,2.70
2019-02-22T14:38:34.761Z,3.00
2019-02-22T14:41:03.093Z,3.00
2019-02-22T14:43:31.410Z,2.83
2019-02-22T14:45:59.680Z,2.93
2019-02-22T14:48:27.702Z,2.93
2019-02-22T14:50:55.961Z,3.20
2019-02-22T14:53:24.346Z,2.77
2019-02-22T14:55:52.514Z,4.67
2019-02-22T14:58:20.537Z,3.63
2019-02-22T15:00:48.895Z,3.10
2019-02-22T15:03:17.150Z,3.73
2019-02-22T15:05:45.202Z,3.83
2019-02-22T15:08:13.585Z,3.80
2019-02-22T15:10:41.503Z,3.37
2019-02-22T15:13:12.662Z,3.13
2019-02-22T15:16:04.314Z,3.20
2019-02-22T15:18:32.246Z,4.03
2019-02-22T15:21:00.162Z,3.70
2019-02-22T15:23:28.099Z,4.07
2019-02-22T15:25:56.045Z,4.07
2019-02-22T15:28:26.252Z,3.30
2019-02-22T15:30:53.178Z,3.90
2019-02-22T15:33:20.833Z,3.60
2019-02-22T15:35:49.169Z,3.30
2019-02-22T15:38:16.846Z,3.80
2019-02-22T15:40:45.108Z,3.30
2019-02-22T15:43:12.752Z,3.80
2019-02-22T15:45:41.290Z,3.70
2019-02-22T15:48:09.625Z,3.40
2019-02-22T15:50:37.862Z,3.23
2019-02-22T15:53:06.469Z,3.07
2019-02-22T15:55:34.764Z,3.70
2019-02-22T15:58:02.677Z,3.57
2019-02-22T16:00:31.093Z,3.70
2019-02-22T16:02:59.326Z,3.63
2019-02-22T16:05:35.828Z,3.30
2019-02-22T16:08:04.012Z,3.87
2019-02-22T16:10:32.005Z,3.10
2019-02-22T16:13:00.344Z,3.53
2019-02-22T16:15:28.024Z,3.40
2019-02-22T16:17:56.005Z,3.30
2019-02-22T16:20:24.441Z,3.23
2019-02-22T16:22:52.399Z,3.37
2019-02-22T16:25:20.647Z,2.87
2019-02-22T16:27:48.981Z,2.83
2019-02-22T16:30:18.224Z,3.37
2019-02-22T16:32:46.182Z,2.87
2019-02-22T16:35:14.601Z,3.20
2019-02-22T16:37:42.798Z,2.67
2019-02-22T16:40:10.968Z,2.60
2019-02-22T16:42:39.296Z,2.30
2019-02-22T16:45:07.802Z,2.30
2019-02-22T16:47:40.022Z,2.10
2019-02-22T16:50:07.125Z,2.80
2019-02-22T16:52:34.973Z,2.60
2019-02-22T16:55:02.814Z,2.40
2019-02-22T16:57:30.777Z,2.40
2019-02-22T16:59:58.704Z,2.43
2019-02-22T17:02:26.732Z,2.37
2019-02-22T17:04:54.777Z,2.20
2019-02-22T17:07:22.773Z,2.33
2019-02-22T17:09:50.495Z,2.50
2019-02-22T17:12:18.617Z,2.17
2019-02-22T17:14:46.589Z,2.43
2019-02-22T17:17:15.097Z,2.40
2019-02-22T17:19:43.345Z,2.93
2019-02-22T17:22:11.590Z,2.90
2019-02-22T17:24:39.881Z,2.33
2019-02-22T17:27:08.077Z,4.07
2019-02-22T17:29:35.728Z,3.83
2019-02-22T17:32:03.398Z,4.20
2019-02-22T17:34:31.345Z,8.33
2019-02-22T17:36:59.306Z,7.63
2019-02-22T17:39:26.974Z,4.50
2019-02-22T17:41:54.889Z,3.90
2019-02-22T17:44:22.662Z,2.90
2019-02-22T17:46:57.704Z,3.87
2019-02-22T17:49:21.366Z,3.23
2019-02-22T17:51:49.057Z,2.70
2019-02-22T17:54:16.721Z,2.70
2019-02-22T17:56:44.713Z,3.13
2019-02-22T17:59:12.929Z,3.83
2019-02-22T18:01:40.653Z,3.83
2019-02-22T18:04:08.624Z,4.37
2019-02-22T18:06:36.297Z,4.87
2019-02-22T18:09:05.772Z,4.47
2019-02-22T18:11:33.473Z,4.80
2019-02-22T18:14:01.246Z,4.23
2019-02-22T18:16:29.023Z,5.10
2019-02-22T18:18:57.310Z,4.90
2019-02-22T18:21:25.448Z,4.90
2019-02-22T18:23:53.113Z,4.83
2019-02-22T18:26:21.184Z,5.57
2019-02-22T18:28:49.357Z,5.50
2019-02-22T18:31:17.024Z,5.07
2019-02-22T18:33:44.953Z,5.03
2019-02-22T18:36:12.943Z,5.40
2019-02-22T18:38:41.268Z,5.50
2019-02-22T18:41:09.213Z,6.00
2019-02-22T18:43:37.754Z,6.27
2019-02-22T18:46:05.753Z,6.40
2019-02-22T18:48:33.421Z,6.67
2019-02-22T18:51:01.090Z,6.33
2019-02-22T18:53:29.005Z,6.37
2019-02-22T18:55:56.934Z,6.90
2019-02-22T18:58:24.998Z,7.83
2019-02-22T19:00:53.362Z,6.43
2019-02-22T19:03:21.546Z,7.20
2019-02-22T19:05:49.508Z,6.93
2019-02-22T19:08:17.206Z,8.27
2019-02-22T19:10:44.985Z,8.03
2019-02-22T19:13:13.233Z,8.53
2019-02-22T19:15:41.159Z,8.50
2019-02-22T19:18:09.348Z,8.57
2019-02-22T19:20:37.313Z,8.50
2019-02-22T19:23:04.977Z,14.23
2019-02-22T19:25:33.002Z,15.20
2019-02-22T19:28:01.091Z,17.50
2019-02-22T19:30:28.748Z,10.70
2019-02-22T19:32:56.678Z,9.77
2019-02-22T19:35:24.332Z,8.30
2019-02-22T19:37:52.421Z,9.30
2019-02-22T19:40:20.849Z,8.87
2019-02-22T19:42:48.523Z,9.23
2019-02-22T19:45:16.425Z,8.73
2019-02-22T19:47:44.807Z,8.03
2019-02-22T19:50:13.061Z,8.00
2019-02-22T19:52:40.932Z,8.20
2019-02-22T19:55:10.881Z,9.10
2019-02-22T19:57:38.897Z,9.40
2019-02-22T20:00:08.663Z,10.27
2019-02-22T20:02:36.693Z,10.70
2019-02-22T20:05:04.690Z,9.83
2019-02-22T20:07:32.641Z,12.23
2019-02-22T20:10:00.954Z,14.77
2019-02-22T20:12:29.323Z,10.07
2019-02-22T20:14:57.005Z,27.17
2019-02-22T20:17:25.675Z,23.07
2019-02-22T20:19:54.033Z,17.90
2019-02-22T20:22:22.070Z,13.67
2019-02-22T20:24:49.745Z,12.90
2019-02-22T20:27:17.983Z,20.50
2019-02-22T20:29:45.685Z,11.17
2019-02-22T20:32:13.349Z,9.30
2019-02-22T20:34:41.960Z,8.77
2019-02-22T20:37:09.682Z,8.80
2019-02-22T20:39:37.622Z,8.07
2019-02-22T20:42:05.957Z,9.73
2019-02-22T20:44:33.996Z,8.97
2019-02-22T20:47:02.025Z,11.33
2019-02-22T20:49:29.940Z,9.10
2019-02-22T20:51:57.934Z,8.23
2019-02-22T20:54:26.182Z,8.47
2019-02-22T20:56:53.844Z,13.83
2019-02-22T20:59:21.774Z,8.63
2019-02-22T21:01:49.708Z,8.57
2019-02-22T21:04:18.397Z,7.87
2019-02-22T21:06:46.092Z,8.40
2019-02-22T21:09:14.094Z,8.60
2019-02-22T21:11:42.608Z,9.50
2019-02-22T21:14:10.911Z,10.10
2019-02-22T21:16:39.190Z,8.90
2019-02-22T21:19:06.840Z,9.47
2019-02-22T21:21:34.593Z,8.33
2019-02-22T21:24:02.623Z,8.10
2019-02-22T21:26:30.946Z,8.07
2019-02-22T21:28:58.998Z,7.40
2019-02-22T21:31:27.502Z,8.97
2019-02-22T21:33:55.417Z,8.70
2019-02-22T21:36:23.401Z,7.90
2019-02-22T21:38:51.614Z,8.20
2019-02-22T21:41:19.969Z,8.00
2019-02-22T21:43:48.257Z,7.90
2019-02-22T21:46:16.457Z,7.40
2019-02-22T21:48:44.585Z,8.53
2019-02-22T21:51:12.242Z,8.50
2019-02-22T21:53:40.210Z,8.10
2019-02-22T21:56:07.980Z,8.30
2019-02-22T21:58:36.389Z,8.40
2019-02-22T22:01:04.257Z,8.80
2019-02-22T22:03:32.533Z,8.63
2019-02-22T22:06:00.541Z,8.40
2019-02-22T22:08:29.697Z,9.20
2019-02-22T22:10:57.706Z,8.80
2019-02-22T22:13:25.718Z,8.97
2019-02-22T22:15:53.950Z,9.93
2019-02-22T22:18:21.882Z,9.03
2019-02-22T22:20:49.905Z,8.70
2019-02-22T22:23:17.601Z,8.80
2019-02-22T22:25:45.257Z,8.43
2019-02-22T22:28:13.561Z,8.57
2019-02-22T22:30:41.794Z,8.57
2019-02-22T22:33:10.006Z,8.87
2019-02-22T22:35:38.181Z,7.87
2019-02-22T22:38:05.832Z,8.40
2019-02-22T22:40:33.818Z,8.40
2019-02-22T22:43:02.145Z,7.73
2019-02-22T22:45:30.175Z,8.00
2019-02-22T22:47:58.149Z,8.20
2019-02-22T22:50:25.824Z,7.90
2019-02-22T22:52:54.061Z,8.10
2019-02-22T22:55:22.342Z,8.20
2019-02-22T22:57:50.238Z,7.93
2019-02-22T23:00:35.617Z,8.37
2019-02-22T23:03:04.372Z,8.60
2019-02-22T23:05:32.668Z,8.07
2019-02-22T23:08:00.677Z,8.33
2019-02-22T23:10:29.313Z,7.90
2019-02-22T23:12:57.677Z,7.67
2019-02-22T23:15:25.862Z,8.00
2019-02-22T23:17:54.041Z,7.57
2019-02-22T23:20:22.305Z,7.70
2019-02-22T23:22:50.386Z,7.73
2019-02-22T23:25:18.340Z,6.60
2019-02-22T23:27:46.393Z,7.37
2019-02-22T23:30:14.417Z,6.97
2019-02-22T23:32:42.165Z,7.30
2019-02-22T23:35:09.811Z,7.40
2019-02-22T23:37:38.084Z,7.13
2019-02-22T23:40:06.434Z,6.93
2019-02-22T23:42:34.745Z,7.10
2019-02-22T23:45:03.022Z,6.23
2019-02-22T23:47:31.081Z,6.67
2019-02-22T23:49:59.573Z,6.70
2019-02-22T23:52:27.484Z,6.80
2019-02-22T23:54:55.485Z,7.13
2019-02-22T23:57:23.453Z,6.87
2019-02-22T23:59:51.459Z,6.83
